createdAt,value
2023-09-23T00:00:16.826Z,99.99
2023-09-23T00:01:16.845Z,99.99
2023-09-23T00:02:16.942Z,99.99
2023-09-23T00:03:16.877Z,99.99
2023-09-23T00:04:16.896Z,99.99
2023-09-23T00:05:16.922Z,99.99
2023-09-23T00:06:16.830Z,99.99
2023-09-23T00:07:16.837Z,99.99
2023-09-23T00:08:16.863Z,99.99
2023-09-23T00:09:16.835Z,99.99
2023-09-23T00:10:16.823Z,99.99
2023-09-23T00:11:16.872Z,99.99
2023-09-23T00:12:17.146Z,99.99
2023-09-23T00:13:16.848Z,99.99
2023-09-23T00:14:16.888Z,99.99
2023-09-23T00:15:16.829Z,99.99
2023-09-23T00:16:17.410Z,99.99
2023-09-23T00:17:16.892Z,99.99
2023-09-23T00:18:16.822Z,99.99
2023-09-23T00:19:16.831Z,99.99
2023-09-23T00:20:16.947Z,99.99
2023-09-23T00:21:16.821Z,99.99
2023-09-23T00:22:16.813Z,99.99
2023-09-23T00:23:16.870Z,99.99
2023-09-23T00:24:16.818Z,99.99
2023-09-23T00:25:16.829Z,99.99
2023-09-23T00:26:16.874Z,99.99
2023-09-23T00:27:16.820Z,99.99
2023-09-23T00:28:16.816Z,99.99
2023-09-23T00:29:16.906Z,99.99
2023-09-23T00:30:16.843Z,99.99
2023-09-23T00:31:16.831Z,99.99
2023-09-23T00:32:16.844Z,99.99
2023-09-23T00:33:16.820Z,99.99
2023-09-23T00:34:17.159Z,99.99
2023-09-23T00:35:16.868Z,99.99
2023-09-23T00:36:16.810Z,99.99
2023-09-23T00:37:16.812Z,99.99
2023-09-23T00:38:16.855Z,99.99
2023-09-23T00:39:16.813Z,99.99
2023-09-23T00:40:16.820Z,99.99
2023-09-23T00:41:16.853Z,99.99
2023-09-23T00:42:16.829Z,99.99
2023-09-23T00:43:16.812Z,99.99
2023-09-23T00:44:16.830Z,99.99
2023-09-23T00:45:16.837Z,99.99
2023-09-23T00:46:16.836Z,99.99
2023-09-23T00:47:16.868Z,99.99
2023-09-23T00:48:16.810Z,99.99
2023-09-23T00:49:16.808Z,99.99
2023-09-23T00:50:16.852Z,99.99
2023-09-23T00:51:16.810Z,99.99
2023-09-23T00:52:16.852Z,99.99
2023-09-23T00:53:16.828Z,99.99
2023-09-23T00:54:16.804Z,99.99
2023-09-23T00:55:16.813Z,99.99
2023-09-23T00:56:16.843Z,99.99
2023-09-23T00:57:16.805Z,99.99
2023-09-23T00:58:16.807Z,99.99
2023-09-23T00:59:16.841Z,99.99
2023-09-23T01:00:16.801Z,99.99
2023-09-23T01:01:16.870Z,99.99
2023-09-23T01:02:16.951Z,99.99
2023-09-23T01:03:16.965Z,99.99
2023-09-23T01:04:16.892Z,99.99
2023-09-23T01:05:16.828Z,99.99
2023-09-23T01:06:16.803Z,99.99
2023-09-23T01:07:16.822Z,99.99
2023-09-23T01:08:16.845Z,99.99
2023-09-23T01:09:16.804Z,99.99
2023-09-23T01:10:16.800Z,99.99
2023-09-23T01:11:16.846Z,99.99
2023-09-23T01:12:16.806Z,99.99
2023-09-23T01:13:16.803Z,99.99
2023-09-23T01:14:16.827Z,99.99
2023-09-23T01:15:16.803Z,99.99
2023-09-23T01:16:16.834Z,99.99
2023-09-23T01:17:16.904Z,99.99
2023-09-23T01:18:16.805Z,99.99
2023-09-23T01:19:16.802Z,99.99
2023-09-23T01:20:16.857Z,99.99
2023-09-23T01:21:16.800Z,99.99
2023-09-23T01:22:16.799Z,99.99
2023-09-23T01:23:16.834Z,99.99
2023-09-23T01:24:16.803Z,99.99
2023-09-23T01:25:16.800Z,99.99
2023-09-23T01:26:16.826Z,99.99
2023-09-23T01:27:16.801Z,99.99
2023-09-23T01:28:17.099Z,99.99
2023-09-23T01:29:16.871Z,99.99
2023-09-23T01:30:16.799Z,99.99
2023-09-23T01:31:16.841Z,99.99
2023-09-23T01:32:16.824Z,99.99
2023-09-23T01:33:17.131Z,99.99
2023-09-23T01:34:16.793Z,99.99
2023-09-23T01:35:16.847Z,99.99
2023-09-23T01:36:16.792Z,99.99
2023-09-23T01:37:16.796Z,99.99
2023-09-23T01:38:17.032Z,99.99
2023-09-23T01:39:16.796Z,99.99
2023-09-23T01:40:16.792Z,99.99
2023-09-23T01:41:17.139Z,99.99
2023-09-23T01:42:16.787Z,99.99
2023-09-23T01:43:16.804Z,99.99
2023-09-23T01:44:16.822Z,99.99
2023-09-23T01:45:16.796Z,99.99
2023-09-23T01:46:16.816Z,99.99
2023-09-23T01:47:16.880Z,99.99
2023-09-23T01:48:16.825Z,99.99
2023-09-23T01:49:16.815Z,99.99
2023-09-23T01:50:16.821Z,99.99
2023-09-23T01:51:16.788Z,99.99
2023-09-23T01:52:16.785Z,99.99
2023-09-23T01:53:16.846Z,99.99
2023-09-23T01:54:16.786Z,99.99
2023-09-23T01:55:16.790Z,99.99
2023-09-23T01:56:16.832Z,99.99
2023-09-23T01:57:16.781Z,99.99
2023-09-23T01:58:16.781Z,99.99
2023-09-23T01:59:16.810Z,99.99
2023-09-23T02:00:16.784Z,99.99
2023-09-23T02:01:16.810Z,99.99
2023-09-23T02:02:16.958Z,99.99
2023-09-23T02:03:16.866Z,99.99
2023-09-23T02:04:16.780Z,99.99
2023-09-23T02:05:16.860Z,99.99
2023-09-23T02:06:16.778Z,99.99
2023-09-23T02:07:16.786Z,99.99
2023-09-23T02:08:16.831Z,99.99
2023-09-23T02:09:16.780Z,99.99
2023-09-23T02:10:16.802Z,99.99
2023-09-23T02:11:16.834Z,99.99
2023-09-23T02:12:16.786Z,99.99
2023-09-23T02:13:16.781Z,99.99
2023-09-23T02:14:16.788Z,99.99
2023-09-23T02:15:16.797Z,99.99
2023-09-23T02:16:16.810Z,99.99
2023-09-23T02:17:16.930Z,99.99
2023-09-23T02:18:16.803Z,99.99
2023-09-23T02:19:16.781Z,99.99
2023-09-23T02:20:16.864Z,99.99
2023-09-23T02:21:16.810Z,99.99
2023-09-23T02:22:16.790Z,99.99
2023-09-23T02:23:18.800Z,99.99
2023-09-23T02:24:16.780Z,99.99
2023-09-23T02:25:16.782Z,99.99
2023-09-23T02:26:16.804Z,99.99
2023-09-23T02:27:16.803Z,99.99
2023-09-23T02:28:16.772Z,99.99
2023-09-23T02:29:16.835Z,99.99
2023-09-23T02:30:16.775Z,99.99
2023-09-23T02:31:16.797Z,99.99
2023-09-23T02:32:16.803Z,99.99
2023-09-23T02:33:16.778Z,99.99
2023-09-23T02:34:16.775Z,99.99
2023-09-23T02:35:16.967Z,99.99
2023-09-23T02:36:16.779Z,99.99
2023-09-23T02:37:16.800Z,99.99
2023-09-23T02:38:16.779Z,99.99
2023-09-23T02:39:16.787Z,99.99
2023-09-23T02:40:16.785Z,99.99
2023-09-23T02:41:16.809Z,99.99
2023-09-23T02:42:16.768Z,99.99
2023-09-23T02:43:16.776Z,99.99
2023-09-23T02:44:16.797Z,99.99
2023-09-23T02:45:16.768Z,99.99
2023-09-23T02:46:16.800Z,99.99
2023-09-23T02:47:16.784Z,99.99
2023-09-23T02:48:16.807Z,99.99
2023-09-23T02:49:16.785Z,99.99
2023-09-23T02:50:16.858Z,99.99
2023-09-23T02:51:16.769Z,99.99
2023-09-23T02:52:16.767Z,99.99
2023-09-23T02:53:16.867Z,99.99
2023-09-23T02:54:16.789Z,99.99
2023-09-23T02:55:17.309Z,99.99
2023-09-23T02:56:16.795Z,99.99
2023-09-23T02:57:16.767Z,99.99
2023-09-23T02:58:16.764Z,99.99
2023-09-23T02:59:17.022Z,99.99
2023-09-23T03:00:16.777Z,99.99
2023-09-23T03:01:16.797Z,99.99
2023-09-23T03:02:16.810Z,99.99
2023-09-23T03:03:16.855Z,99.99
2023-09-23T03:04:16.768Z,99.99
2023-09-23T03:05:16.909Z,99.99
2023-09-23T03:06:16.758Z,99.99
2023-09-23T03:07:16.761Z,99.99
2023-09-23T03:08:16.764Z,99.99
2023-09-23T03:09:16.789Z,99.99
2023-09-23T03:10:16.765Z,99.99
2023-09-23T03:11:16.782Z,99.99
2023-09-23T03:12:16.768Z,99.99
2023-09-23T03:13:16.756Z,99.99
2023-09-23T03:14:16.774Z,99.99
2023-09-23T03:15:16.762Z,99.99
2023-09-23T03:16:16.781Z,99.99
2023-09-23T03:17:16.780Z,99.99
2023-09-23T03:18:17.195Z,99.99
2023-09-23T03:19:16.763Z,99.99
2023-09-23T03:20:16.776Z,99.99
2023-09-23T03:21:16.751Z,99.99
2023-09-23T03:22:16.745Z,99.99
2023-09-23T03:23:16.784Z,99.99
2023-09-23T03:24:16.754Z,99.99
2023-09-23T03:25:16.766Z,99.99
2023-09-23T03:26:16.782Z,99.99
2023-09-23T03:27:16.739Z,99.99
2023-09-23T03:28:16.739Z,99.99
2023-09-23T03:29:16.762Z,99.99
2023-09-23T03:30:16.737Z,99.99
2023-09-23T03:31:16.731Z,99.99
2023-09-23T03:32:16.790Z,99.99
2023-09-23T03:33:16.775Z,99.99
2023-09-23T03:34:16.737Z,99.99
2023-09-23T03:35:16.757Z,99.99
2023-09-23T03:36:16.745Z,99.99
2023-09-23T03:37:16.722Z,99.99
2023-09-23T03:38:16.849Z,99.99
2023-09-23T03:39:16.727Z,99.99
2023-09-23T03:40:16.776Z,99.99
2023-09-23T03:41:16.839Z,99.99
2023-09-23T03:42:16.723Z,99.99
2023-09-23T03:43:16.721Z,99.99
2023-09-23T03:44:16.761Z,99.99
2023-09-23T03:45:16.715Z,99.99
2023-09-23T03:46:16.737Z,99.99
2023-09-23T03:47:16.777Z,99.99
2023-09-23T03:48:16.783Z,99.99
2023-09-23T03:49:16.711Z,99.99
2023-09-23T03:50:16.743Z,99.99
2023-09-23T03:51:16.756Z,99.99
2023-09-23T03:52:16.732Z,99.99
2023-09-23T03:53:16.769Z,99.99
2023-09-23T03:54:16.717Z,99.99
2023-09-23T03:55:16.713Z,99.99
2023-09-23T03:56:16.810Z,99.99
2023-09-23T03:57:16.746Z,99.99
2023-09-23T03:58:16.715Z,99.99
2023-09-23T03:59:16.784Z,99.99
2023-09-23T04:00:16.711Z,99.99
2023-09-23T04:01:16.774Z,99.99
2023-09-23T04:02:16.768Z,99.99
2023-09-23T04:03:16.734Z,99.99
2023-09-23T04:04:16.713Z,99.99
2023-09-23T04:05:16.782Z,99.99
2023-09-23T04:06:16.725Z,99.99
2023-09-23T04:07:16.710Z,99.99
2023-09-23T04:08:16.740Z,99.99
2023-09-23T04:09:16.704Z,99.99
2023-09-23T04:10:16.708Z,99.99
2023-09-23T04:11:16.798Z,99.99
2023-09-23T04:12:16.777Z,99.99
2023-09-23T04:13:16.736Z,99.99
2023-09-23T04:14:16.739Z,99.99
2023-09-23T04:15:16.700Z,99.99
2023-09-23T04:16:16.744Z,99.99
2023-09-23T04:17:16.743Z,99.99
2023-09-23T04:18:16.708Z,99.99
2023-09-23T04:19:16.695Z,99.99
2023-09-23T04:20:16.786Z,99.99
2023-09-23T04:21:16.696Z,99.99
2023-09-23T04:22:16.696Z,99.99
2023-09-23T04:23:16.781Z,99.99
2023-09-23T04:24:16.698Z,99.99
2023-09-23T04:25:16.696Z,99.99
2023-09-23T04:26:16.764Z,99.99
2023-09-23T04:27:16.694Z,99.99
2023-09-23T04:28:16.697Z,99.99
2023-09-23T04:29:16.729Z,99.99
2023-09-23T04:30:16.705Z,99.99
2023-09-23T04:31:16.689Z,99.99
2023-09-23T04:32:16.762Z,99.99
2023-09-23T04:33:16.787Z,99.99
2023-09-23T04:34:16.696Z,99.99
2023-09-23T04:35:16.753Z,99.99
2023-09-23T04:36:16.691Z,99.99
2023-09-23T04:37:16.687Z,99.99
2023-09-23T04:38:16.746Z,99.99
2023-09-23T04:39:16.685Z,99.99
2023-09-23T04:40:16.748Z,99.99
2023-09-23T04:41:16.768Z,99.99
2023-09-23T04:42:16.684Z,99.99
2023-09-23T04:43:16.682Z,99.99
2023-09-23T04:44:16.718Z,99.99
2023-09-23T04:45:16.702Z,99.99
2023-09-23T04:46:16.694Z,99.99
2023-09-23T04:47:16.708Z,99.99
2023-09-23T04:48:16.719Z,99.99
2023-09-23T04:49:16.680Z,99.99
2023-09-23T04:50:16.704Z,99.99
2023-09-23T04:51:16.674Z,99.99
2023-09-23T04:52:16.748Z,99.99
2023-09-23T04:53:16.688Z,99.99
2023-09-23T04:54:16.677Z,99.99
2023-09-23T04:55:16.681Z,99.99
2023-09-23T04:56:16.711Z,99.99
2023-09-23T04:57:16.671Z,99.99
2023-09-23T04:58:16.680Z,99.99
2023-09-23T04:59:16.719Z,99.99
2023-09-23T05:00:16.676Z,99.99
2023-09-23T05:01:16.687Z,99.99
2023-09-23T05:02:16.734Z,99.99
2023-09-23T05:03:16.698Z,99.99
2023-09-23T05:04:16.713Z,99.99
2023-09-23T05:05:16.783Z,99.99
2023-09-23T05:06:16.682Z,99.99
2023-09-23T05:07:16.670Z,99.99
2023-09-23T05:08:16.722Z,99.99
2023-09-23T05:09:16.662Z,99.99
2023-09-23T05:10:16.669Z,99.99
2023-09-23T05:11:16.666Z,99.99
2023-09-23T05:12:16.662Z,99.99
2023-09-23T05:13:16.660Z,99.99
2023-09-23T05:14:16.676Z,99.99
2023-09-23T05:15:17.089Z,99.99
2023-09-23T05:16:16.686Z,99.99
2023-09-23T05:17:16.724Z,99.99
2023-09-23T05:18:16.667Z,99.99
2023-09-23T05:19:16.682Z,99.99
2023-09-23T05:20:16.739Z,99.99
2023-09-23T05:21:16.653Z,99.99
2023-09-23T05:22:16.660Z,99.99
2023-09-23T05:23:16.696Z,99.99
2023-09-23T05:24:16.655Z,99.99
2023-09-23T05:25:16.649Z,99.99
2023-09-23T05:26:16.694Z,99.99
2023-09-23T05:27:16.660Z,99.99
2023-09-23T05:28:16.652Z,99.99
2023-09-23T05:29:16.647Z,99.99
2023-09-23T05:30:16.647Z,99.99
2023-09-23T05:31:16.685Z,99.99
2023-09-23T05:32:16.688Z,99.99
2023-09-23T05:33:16.672Z,99.99
2023-09-23T05:34:16.652Z,99.99
2023-09-23T05:35:16.724Z,99.99
2023-09-23T05:36:16.651Z,99.99
2023-09-23T05:37:16.641Z,99.99
2023-09-23T05:38:16.666Z,99.99
2023-09-23T05:39:16.637Z,99.99
2023-09-23T05:40:16.642Z,99.99
2023-09-23T05:41:16.677Z,99.99
2023-09-23T05:42:16.645Z,99.99
2023-09-23T05:43:16.641Z,99.99
2023-09-23T05:44:16.665Z,99.99
2023-09-23T05:45:16.713Z,99.99
2023-09-23T05:46:16.667Z,99.99
2023-09-23T05:47:16.716Z,99.99
2023-09-23T05:48:16.658Z,99.99
2023-09-23T05:49:16.653Z,99.99
2023-09-23T05:50:16.747Z,99.99
2023-09-23T05:51:16.635Z,99.99
2023-09-23T05:52:16.638Z,99.99
2023-09-23T05:53:16.655Z,99.99
2023-09-23T05:54:16.629Z,99.99
2023-09-23T05:55:16.628Z,99.99
2023-09-23T05:56:16.653Z,99.99
2023-09-23T05:57:16.627Z,99.99
2023-09-23T05:58:16.656Z,99.99
2023-09-23T05:59:16.676Z,99.99
2023-09-23T06:00:16.796Z,99.99
2023-09-23T06:01:16.709Z,99.99
2023-09-23T06:02:16.633Z,99.99
2023-09-23T06:03:16.707Z,99.99
2023-09-23T06:04:16.629Z,99.99
2023-09-23T06:05:16.711Z,99.99
2023-09-23T06:06:16.620Z,99.99
2023-09-23T06:07:16.619Z,99.99
2023-09-23T06:08:16.699Z,99.99
2023-09-23T06:09:16.615Z,99.99
2023-09-23T06:10:16.654Z,99.99
2023-09-23T06:11:16.641Z,99.99
2023-09-23T06:12:16.619Z,99.99
2023-09-23T06:13:16.612Z,99.99
2023-09-23T06:14:16.641Z,99.99
2023-09-23T06:15:16.632Z,99.99
2023-09-23T06:16:16.655Z,99.99
2023-09-23T06:17:16.665Z,99.99
2023-09-23T06:18:16.708Z,99.99
2023-09-23T06:19:16.611Z,99.99
2023-09-23T06:20:16.659Z,99.99
2023-09-23T06:21:16.635Z,99.99
2023-09-23T06:22:16.610Z,99.99
2023-09-23T06:23:16.668Z,99.99
2023-09-23T06:24:16.612Z,99.99
2023-09-23T06:25:16.621Z,99.99
2023-09-23T06:26:16.708Z,99.99
2023-09-23T06:27:16.605Z,99.99
2023-09-23T06:28:16.607Z,99.99
2023-09-23T06:29:16.683Z,99.99
2023-09-23T06:30:16.664Z,99.99
2023-09-23T06:31:16.677Z,99.99
2023-09-23T06:32:16.666Z,99.99
2023-09-23T06:33:16.698Z,99.99
2023-09-23T06:34:16.605Z,99.99
2023-09-23T06:35:16.692Z,99.99
2023-09-23T06:36:16.600Z,99.99
2023-09-23T06:37:16.621Z,99.99
2023-09-23T06:38:16.634Z,99.99
2023-09-23T06:39:16.595Z,99.99
2023-09-23T06:40:16.604Z,99.99
2023-09-23T06:41:16.639Z,99.99
2023-09-23T06:42:16.599Z,99.99
2023-09-23T06:43:16.593Z,99.99
2023-09-23T06:44:16.660Z,99.99
2023-09-23T06:45:16.609Z,99.99
2023-09-23T06:46:16.630Z,99.99
2023-09-23T06:47:16.645Z,99.99
2023-09-23T06:48:16.642Z,99.99
2023-09-23T06:49:16.592Z,99.99
2023-09-23T06:50:16.627Z,99.99
2023-09-23T06:51:16.586Z,99.99
2023-09-23T06:52:16.593Z,99.99
2023-09-23T06:53:16.644Z,99.99
2023-09-23T06:54:16.587Z,99.99
2023-09-23T06:55:16.588Z,99.99
2023-09-23T06:56:16.605Z,99.99
2023-09-23T06:57:16.590Z,99.99
2023-09-23T06:58:16.587Z,99.99
2023-09-23T06:59:16.624Z,99.99
2023-09-23T07:00:16.598Z,99.99
2023-09-23T07:01:16.645Z,99.99
2023-09-23T07:02:16.692Z,99.99
2023-09-23T07:03:16.739Z,99.99
2023-09-23T07:04:16.722Z,99.99
2023-09-23T07:05:16.720Z,99.99
2023-09-23T07:06:16.581Z,99.99
2023-09-23T07:07:16.584Z,99.99
2023-09-23T07:08:16.709Z,99.99
2023-09-23T07:09:16.600Z,99.99
2023-09-23T07:10:16.580Z,99.99
2023-09-23T07:11:16.634Z,99.99
2023-09-23T07:12:16.607Z,99.99
2023-09-23T07:13:16.576Z,99.99
2023-09-23T07:14:16.625Z,99.99
2023-09-23T07:15:16.587Z,99.99
2023-09-23T07:16:16.611Z,99.99
2023-09-23T07:17:16.641Z,99.99
2023-09-23T07:18:16.630Z,99.99
2023-09-23T07:19:16.573Z,99.99
2023-09-23T07:20:16.617Z,99.99
2023-09-23T07:21:16.575Z,99.99
2023-09-23T07:22:16.575Z,99.99
2023-09-23T07:23:16.625Z,99.99
2023-09-23T07:24:16.578Z,99.99
2023-09-23T07:25:16.594Z,99.99
2023-09-23T07:26:16.662Z,99.99
2023-09-23T07:27:16.572Z,99.99
2023-09-23T07:28:16.572Z,98.61
2023-09-23T07:29:16.595Z,97.66
2023-09-23T07:30:18.555Z,98.46
2023-09-23T07:31:16.617Z,97.81
2023-09-23T07:32:16.613Z,96.72
2023-09-23T07:33:16.613Z,96.67
2023-09-23T07:34:16.605Z,96.33
2023-09-23T07:35:16.670Z,95.78
2023-09-23T07:36:16.688Z,95.14
2023-09-23T07:37:16.580Z,93.90
2023-09-23T07:38:16.630Z,93.76
2023-09-23T07:39:16.570Z,93.02
2023-09-23T07:40:16.601Z,92.93
2023-09-23T07:41:16.622Z,90.80
2023-09-23T07:42:16.571Z,90.11
2023-09-23T07:43:16.570Z,89.22
2023-09-23T07:44:16.635Z,90.07
2023-09-23T07:45:16.567Z,89.37
2023-09-23T07:46:16.584Z,88.30
2023-09-23T07:47:16.608Z,87.30
2023-09-23T07:48:16.614Z,87.90
2023-09-23T07:49:16.567Z,87.81
2023-09-23T07:50:16.586Z,86.52
2023-09-23T07:51:16.583Z,87.49
2023-09-23T07:52:16.576Z,88.39
2023-09-23T07:53:16.613Z,88.78
2023-09-23T07:54:16.570Z,89.60
2023-09-23T07:55:16.570Z,90.04
2023-09-23T07:56:16.650Z,90.78
2023-09-23T07:57:16.596Z,91.06
2023-09-23T07:58:16.570Z,92.19
2023-09-23T07:59:16.626Z,93.23
2023-09-23T08:00:16.580Z,93.88
2023-09-23T08:01:16.621Z,94.87
2023-09-23T08:02:16.619Z,95.32
2023-09-23T08:03:16.669Z,96.26
2023-09-23T08:04:16.592Z,95.86
2023-09-23T08:05:16.701Z,96.95
2023-09-23T08:06:16.584Z,97.15
2023-09-23T08:07:16.586Z,97.41
2023-09-23T08:08:16.624Z,97.26
2023-09-23T08:09:16.584Z,97.06
2023-09-23T08:10:16.583Z,97.01
2023-09-23T08:11:16.690Z,96.26
2023-09-23T08:12:16.588Z,95.07
2023-09-23T08:13:16.610Z,95.62
2023-09-23T08:14:16.664Z,95.96
2023-09-23T08:15:16.590Z,96.56
2023-09-23T08:16:16.640Z,95.56
2023-09-23T08:17:16.624Z,96.06
2023-09-23T08:18:16.611Z,96.46
2023-09-23T08:19:16.590Z,97.36
2023-09-23T08:20:16.636Z,97.16
2023-09-23T08:21:16.595Z,95.90
2023-09-23T08:22:16.589Z,96.31
2023-09-23T08:23:16.634Z,97.65
2023-09-23T08:24:16.597Z,97.40
2023-09-23T08:25:16.598Z,97.50
2023-09-23T08:26:16.671Z,98.84
2023-09-23T08:27:16.602Z,98.19
2023-09-23T08:28:16.605Z,98.29
2023-09-23T08:29:16.642Z,99.33
2023-09-23T08:30:16.595Z,99.74
2023-09-23T08:31:18.149Z,99.04
2023-09-23T08:32:16.689Z,99.04
2023-09-23T08:33:16.754Z,99.99
2023-09-23T08:34:16.627Z,98.49
2023-09-23T08:35:16.684Z,98.54
2023-09-23T08:36:16.604Z,99.24
2023-09-23T08:37:16.610Z,98.58
2023-09-23T08:38:16.687Z,99.08
2023-09-23T08:39:16.614Z,98.68
2023-09-23T08:40:16.606Z,98.18
2023-09-23T08:41:16.626Z,97.84
2023-09-23T08:42:16.605Z,98.18
2023-09-23T08:43:16.614Z,98.18
2023-09-23T08:44:16.651Z,98.18
2023-09-23T08:45:16.637Z,99.58
2023-09-23T08:46:16.669Z,98.38
2023-09-23T08:47:16.629Z,99.04
2023-09-23T08:48:16.660Z,98.74
2023-09-23T08:49:16.613Z,98.44
2023-09-23T08:50:16.621Z,98.44
2023-09-23T08:51:16.624Z,98.64
2023-09-23T08:52:16.611Z,98.64
2023-09-23T08:53:16.679Z,98.09
2023-09-23T08:54:16.618Z,97.40
2023-09-23T08:55:16.628Z,97.30
2023-09-23T08:56:16.668Z,97.55
2023-09-23T08:57:16.615Z,97.60
2023-09-23T08:58:16.614Z,97.20
2023-09-23T08:59:16.640Z,96.20
2023-09-23T09:00:16.613Z,96.60
2023-09-23T09:01:16.682Z,96.00
2023-09-23T09:02:16.640Z,96.75
2023-09-23T09:03:16.643Z,96.09
2023-09-23T09:04:16.614Z,96.69
2023-09-23T09:05:16.748Z,96.84
2023-09-23T09:06:16.655Z,97.38
2023-09-23T09:07:16.618Z,97.38
2023-09-23T09:08:16.667Z,97.58
2023-09-23T09:09:16.674Z,97.68
2023-09-23T09:10:16.663Z,97.88
2023-09-23T09:11:16.651Z,98.08
2023-09-23T09:12:16.622Z,97.49
2023-09-23T09:13:16.643Z,97.79
2023-09-23T09:14:16.633Z,95.06
2023-09-23T09:15:16.620Z,94.07
2023-09-23T09:16:16.647Z,92.38
2023-09-23T09:17:16.714Z,93.58
2023-09-23T09:18:16.675Z,93.48
2023-09-23T09:19:16.624Z,93.48
2023-09-23T09:20:16.655Z,92.78
2023-09-23T09:21:16.623Z,93.38
2023-09-23T09:22:16.627Z,93.52
2023-09-23T09:23:16.701Z,93.77
2023-09-23T09:24:16.625Z,94.26
2023-09-23T09:25:16.625Z,95.26
2023-09-23T09:26:16.646Z,93.77
2023-09-23T09:27:16.624Z,93.42
2023-09-23T09:28:16.632Z,90.57
2023-09-23T09:29:16.642Z,88.67
2023-09-23T09:30:16.636Z,87.29
2023-09-23T09:31:16.656Z,85.64
2023-09-23T09:32:16.679Z,84.26
2023-09-23T09:33:16.752Z,84.59
2023-09-23T09:34:16.630Z,83.39
2023-09-23T09:35:16.696Z,83.29
2023-09-23T09:36:16.639Z,82.73
2023-09-23T09:37:16.652Z,83.80
2023-09-23T09:38:18.400Z,84.77
2023-09-23T09:39:16.647Z,85.31
2023-09-23T09:40:16.651Z,87.04
2023-09-23T09:41:16.681Z,86.19
2023-09-23T09:42:16.645Z,85.91
2023-09-23T09:43:16.653Z,85.99
2023-09-23T09:44:16.912Z,86.15
2023-09-23T09:45:16.658Z,85.71
2023-09-23T09:46:16.699Z,86.74
2023-09-23T09:47:16.702Z,86.19
2023-09-23T09:48:16.728Z,86.19
2023-09-23T09:49:16.697Z,86.60
2023-09-23T09:50:16.719Z,84.08
2023-09-23T09:51:16.677Z,83.75
2023-09-23T09:52:16.675Z,82.51
2023-09-23T09:53:16.701Z,83.01
2023-09-23T09:54:16.673Z,82.28
2023-09-23T09:55:16.679Z,82.43
2023-09-23T09:56:18.446Z,80.69
2023-09-23T09:57:16.686Z,81.73
2023-09-23T09:58:16.689Z,82.59
2023-09-23T09:59:16.703Z,84.56
2023-09-23T10:00:16.728Z,85.19
2023-09-23T10:01:16.749Z,86.01
2023-09-23T10:02:16.771Z,86.91
2023-09-23T10:03:16.869Z,87.15
2023-09-23T10:04:16.707Z,88.09
2023-09-23T10:05:16.773Z,87.56
2023-09-23T10:06:16.710Z,86.98
2023-09-23T10:07:16.718Z,86.98
2023-09-23T10:08:16.881Z,87.38
2023-09-23T10:09:16.723Z,86.13
2023-09-23T10:10:16.719Z,87.06
2023-09-23T10:11:16.739Z,87.21
2023-09-23T10:12:16.725Z,87.05
2023-09-23T10:13:16.747Z,86.83
2023-09-23T10:14:16.838Z,89.17
2023-09-23T10:15:16.733Z,89.11
2023-09-23T10:16:16.774Z,89.65
2023-09-23T10:17:16.777Z,90.39
2023-09-23T10:18:16.884Z,90.29
2023-09-23T10:19:16.894Z,90.58
2023-09-23T10:20:16.788Z,91.52
2023-09-23T10:21:16.778Z,91.61
2023-09-23T10:22:16.752Z,91.42
2023-09-23T10:23:16.788Z,91.42
2023-09-23T10:24:16.754Z,92.21
2023-09-23T10:25:16.757Z,91.91
2023-09-23T10:26:16.793Z,91.31
2023-09-23T10:27:16.772Z,91.87
2023-09-23T10:28:16.763Z,91.61
2023-09-23T10:29:16.804Z,90.81
2023-09-23T10:30:16.766Z,91.82
2023-09-23T10:31:16.839Z,91.72
2023-09-23T10:32:16.783Z,91.61
2023-09-23T10:33:16.825Z,91.61
2023-09-23T10:34:16.768Z,92.17
2023-09-23T10:35:16.838Z,91.91
2023-09-23T10:36:16.773Z,91.91
2023-09-23T10:37:16.801Z,92.02
2023-09-23T10:38:16.793Z,91.22
2023-09-23T10:39:16.828Z,91.96
2023-09-23T10:40:16.776Z,91.96
2023-09-23T10:41:16.802Z,91.72
2023-09-23T10:42:16.775Z,91.04
2023-09-23T10:43:16.803Z,89.11
2023-09-23T10:44:16.786Z,87.40
2023-09-23T10:45:16.784Z,84.60
2023-09-23T10:46:16.811Z,84.34
2023-09-23T10:47:16.822Z,83.01
2023-09-23T10:48:16.851Z,82.20
2023-09-23T10:49:16.796Z,80.68
2023-09-23T10:50:16.956Z,79.68
2023-09-23T10:51:16.789Z,79.21
2023-09-23T10:52:16.791Z,77.36
2023-09-23T10:53:16.863Z,77.45
2023-09-23T10:54:16.797Z,76.17
2023-09-23T10:55:16.796Z,76.74
2023-09-23T10:56:16.826Z,76.45
2023-09-23T10:57:16.802Z,76.61
2023-09-23T10:58:16.801Z,77.70
2023-09-23T10:59:16.820Z,77.81
2023-09-23T11:00:16.810Z,79.27
2023-09-23T11:01:16.803Z,80.30
2023-09-23T11:02:16.955Z,81.31
2023-09-23T11:03:16.931Z,80.76
2023-09-23T11:04:16.957Z,78.87
2023-09-23T11:05:16.837Z,77.61
2023-09-23T11:06:16.808Z,77.34
2023-09-23T11:07:16.813Z,76.26
2023-09-23T11:08:16.828Z,74.85
2023-09-23T11:09:16.839Z,76.10
2023-09-23T11:10:16.815Z,76.37
2023-09-23T11:11:16.835Z,76.57
2023-09-23T11:12:16.818Z,76.64
2023-09-23T11:13:16.835Z,78.39
2023-09-23T11:14:16.869Z,78.63
2023-09-23T11:15:16.829Z,79.12
2023-09-23T11:16:16.854Z,78.17
2023-09-23T11:17:16.890Z,79.33
2023-09-23T11:18:16.909Z,80.69
2023-09-23T11:19:16.843Z,80.74
2023-09-23T11:20:16.892Z,81.17
2023-09-23T11:21:16.845Z,80.44
2023-09-23T11:22:16.840Z,79.77
2023-09-23T11:23:16.914Z,78.47
2023-09-23T11:24:16.850Z,77.60
2023-09-23T11:25:16.868Z,77.66
2023-09-23T11:26:16.905Z,76.25
2023-09-23T11:27:16.852Z,76.37
2023-09-23T11:28:16.906Z,74.96
2023-09-23T11:29:16.873Z,75.84
2023-09-23T11:30:16.856Z,75.90
2023-09-23T11:31:16.878Z,75.25
2023-09-23T11:32:16.882Z,76.34
2023-09-23T11:33:16.955Z,76.12
2023-09-23T11:34:16.863Z,76.48
2023-09-23T11:35:16.900Z,76.05
2023-09-23T11:36:16.872Z,76.62
2023-09-23T11:37:16.873Z,77.25
2023-09-23T11:38:16.917Z,77.62
2023-09-23T11:39:16.876Z,79.10
2023-09-23T11:40:16.871Z,80.74
2023-09-23T11:41:16.934Z,77.87
2023-09-23T11:42:16.882Z,77.48
2023-09-23T11:43:17.063Z,76.75
2023-09-23T11:44:16.912Z,77.17
2023-09-23T11:45:16.889Z,77.62
2023-09-23T11:46:16.916Z,76.37
2023-09-23T11:47:16.912Z,77.42
2023-09-23T11:48:16.967Z,76.12
2023-09-23T11:49:16.898Z,75.79
2023-09-23T11:50:16.909Z,74.74
2023-09-23T11:51:16.902Z,73.46
2023-09-23T11:52:16.923Z,72.91
2023-09-23T11:53:16.961Z,72.75
2023-09-23T11:54:17.275Z,72.09
2023-09-23T11:55:16.912Z,72.98
2023-09-23T11:56:16.977Z,72.98
2023-09-23T11:57:16.941Z,73.02
2023-09-23T11:58:16.916Z,74.00
2023-09-23T11:59:16.969Z,73.57
2023-09-23T12:00:16.930Z,73.67
2023-09-23T12:01:16.928Z,73.86
2023-09-23T12:02:16.956Z,73.50
2023-09-23T12:03:17.062Z,75.02
2023-09-23T12:04:17.007Z,73.09
2023-09-23T12:05:17.045Z,73.05
2023-09-23T12:06:16.959Z,74.13
2023-09-23T12:07:16.944Z,73.67
2023-09-23T12:08:16.965Z,71.80
2023-09-23T12:09:16.950Z,73.05
2023-09-23T12:10:16.958Z,72.96
2023-09-23T12:11:17.062Z,73.62
2023-09-23T12:12:16.964Z,74.42
2023-09-23T12:13:16.987Z,75.35
2023-09-23T12:14:16.994Z,76.11
2023-09-23T12:15:16.980Z,76.68
2023-09-23T12:16:17.023Z,78.50
2023-09-23T12:17:17.005Z,79.57
2023-09-23T12:18:17.003Z,80.16
2023-09-23T12:19:17.000Z,79.57
2023-09-23T12:20:17.038Z,81.15
2023-09-23T12:21:17.017Z,81.19
2023-09-23T12:22:17.114Z,81.19
2023-09-23T12:23:17.083Z,80.63
2023-09-23T12:24:17.013Z,81.03
2023-09-23T12:25:17.012Z,81.56
2023-09-23T12:26:17.117Z,81.16
2023-09-23T12:27:17.020Z,81.21
2023-09-23T12:28:17.026Z,81.70
2023-09-23T12:29:17.089Z,82.50
2023-09-23T12:30:17.028Z,82.89
2023-09-23T12:31:17.033Z,82.50
2023-09-23T12:32:17.067Z,82.60
2023-09-23T12:33:17.088Z,82.50
2023-09-23T12:34:17.229Z,82.60
2023-09-23T12:35:17.070Z,83.73
2023-09-23T12:36:17.049Z,83.93
2023-09-23T12:37:17.057Z,84.03
2023-09-23T12:38:17.131Z,83.03
2023-09-23T12:39:17.046Z,83.17
2023-09-23T12:40:17.064Z,84.17
2023-09-23T12:41:17.408Z,82.93
2023-09-23T12:42:17.062Z,83.33
2023-09-23T12:43:17.051Z,83.23
2023-09-23T12:44:17.101Z,82.93
2023-09-23T12:45:17.132Z,82.97
2023-09-23T12:46:17.108Z,82.78
2023-09-23T12:47:17.098Z,84.06
2023-09-23T12:48:17.179Z,83.17
2023-09-23T12:49:17.073Z,82.97
2023-09-23T12:50:17.124Z,82.57
2023-09-23T12:51:17.075Z,84.66
2023-09-23T12:52:17.085Z,82.62